Montague, TX

08:32 AM CST ar Chwefror 26, 2017 (GMT -0600)
MAT944 | | Change Station

Elev 1154 ft 33.69 °N, 97.77 °W | Updated 6 minutes ago

Cymylog Yn Rhannol
Cymylog Yn Rhannol
41.0 °F
Feels Like 38 °F
N
4.0
Gwynt Cyfnewidiol Gwynt from DDw
Gusts 13.0 mph

Heddiw
High -- | Low -- °F
--% Chance of Precip.
Yesterday
High -- | Low -- °F
Precip. -- mod
Gwasgedd 29.93 mod
Gwelededd 10.0 Milltiroedd
Clouds Clir
Oerfel Gwynt 38 °F
Gwlithbwynt 30 °F
Lleithder 64%
Rainfall 0.00 mod
Snow Depth Not available.
7:02 AM 6:25 PM
Waning Crescent, 0% visible
METAR K0F2 261415Z AUTO 15007KT 10SM CLR 06/00 A2993 RMK AO2 T00591003
Gwasgedd 29.93 mod
Gwelededd 10.0 Milltiroedd
Clouds Clir
Oerfel Gwynt 38 °F
Gwlithbwynt 30 °F
Lleithder 64%
Rainfall 0.00 mod
Snow Depth Not available.
7:02 AM 6:25 PM
Waning Crescent, 0% visible
METAR K0F2 261415Z AUTO 15007KT 10SM CLR 06/00 A2993 RMK AO2 T00591003

Get Your Daily Forecast Email!

Thanks for signing up!

Be on the lookout for a verification email in your inbox.

You'll start receiving the daily forecast at 8 AM.

×

10-Day Weather Forecast

Almanac

Astronomy

Feb. 26, 2017 Rise Set
Actual Time
Civil Twilight
Nautical Twilight
Astronomical Twilight
Moon
Length Of Visible Light
Length of Day
Tomorrow will be .
, % of the Moon is Illuminated

Today's Extremes

State Highs State Lows

Community

WunderPhotos

Upload Photos

1,962,540 photos uploaded!

WunderBlog® & News

Nearby

Air Quality

  Air Quality AQ Index Pollutant
Not available.

Snow Depth

Station Depth Elevation

Earthquake Activity

City Distance Mag. Time & Date
Minimum magnitude displayed is 2.5.

Coastal Water Temperatures

Lle Tymheredd

Stations

Nearby Weather Stations

Station Location Temp Oerfel Gwynt Gwlithbwynt Lleithder Gwynt Precip. Elev Diweddarwyd Type
                   

Watches & Warnings

There are currently no watches in effect.